Terminal Aerodrome Forecast
Issued by NWS Hastings, NE

Home | Current Version | Previous Version | Text Only | Print | Product List | Glossary On
Versions: 1 2 3 4 5 6 7 8 9 10 11 12 13 14 15 16 17 18 19 20
444
FTUS45 KGID 121904 AAA
TAFEAR
TAF AMD
KEAR 121904Z 1219/1318 04008KT P6SM OVC015
      TEMPO 1220/1221 3SM BR OVC008
     FM130000 09009KT P6SM SCT015 BKN025
     FM130600 13009KT 6SM -FZDZ BR OVC015
     FM131500 15013G18KT 6SM -FZDZ BR OVC015
      AMD LTD TO CLD VIS AND WIND=

USA.gov is the U.S. government's official web portal to all federal, state and local government web resources and services.